Time;durP1;ratioP1;P1;durP2;ratioP2;P2;SDS_P1;SDS_P2;PMS_P1;PMS_P2;Temp;Humidity;BMP_temperature;BMP_pressure;BME280_temperature;BME280_humidity;BME280_pressure;Samples;Min_cycle;Max_cycle;Signal;HPM_P1;HPM_P2
2021/11/08 00:00:35;;;;;;;13.48;1.52;;;7.70;99.90;;;;;;5042901;28;20048;-61
2021/11/08 00:03:05;;;;;;;12.60;1.73;;;7.60;99.90;;;;;;5021719;28;20040;-61
2021/11/08 00:05:35;;;;;;;18.17;2.88;;;7.60;99.90;;;;;;5039540;28;20044;-63
2021/11/08 00:08:02;;;;;;;10.77;1.52;;;7.50;99.90;;;;;;5035880;28;20489;-61
2021/11/08 00:10:31;;;;;;;10.02;1.98;;;7.50;99.90;;;;;;5035636;28;20061;-63
2021/11/08 00:12:59;;;;;;;8.57;1.33;;;7.40;99.90;;;;;;5042557;28;20037;-61
2021/11/08 00:15:31;;;;;;;11.90;1.45;;;7.40;99.90;;;;;;5039756;28;20086;-62
2021/11/08 00:18:05;;;;;;;8.93;1.52;;;7.40;99.90;;;;;;5030638;28;20033;-62
2021/11/08 00:23:27;;;;;;;17.95;3.33;;;7.40;99.90;;;;;;5021266;28;20139;-64
2021/11/08 00:25:53;;;;;;;15.32;1.60;;;7.40;99.90;;;;;;5041464;28;20036;-63
2021/11/08 00:28:19;;;;;;;12.38;1.67;;;7.40;99.90;;;;;;5039455;28;20052;-61
2021/11/08 00:30:46;;;;;;;12.05;1.80;;;7.40;99.90;;;;;;5039039;28;20563;-62
2021/11/08 00:33:17;;;;;;;11.73;1.98;;;7.30;99.90;;;;;;5040318;28;20470;-62
2021/11/08 00:35:51;;;;;;;12.32;1.90;;;7.30;99.90;;;;;;5040552;28;20045;-62
2021/11/08 00:38:19;;;;;;;11.27;1.80;;;7.20;99.90;;;;;;5022586;28;20038;-62
2021/11/08 00:40:45;;;;;;;13.45;1.63;;;7.20;99.90;;;;;;5040828;28;20546;-63
2021/11/08 00:43:12;;;;;;;10.38;1.77;;;7.20;99.90;;;;;;5021516;28;20037;-64
2021/11/08 00:45:38;;;;;;;12.57;1.52;;;7.20;99.90;;;;;;5041759;28;20056;-60
2021/11/08 00:48:05;;;;;;;11.68;1.77;;;7.10;99.90;;;;;;5020849;28;20037;-63
2021/11/08 00:50:32;;;;;;;13.82;2.25;;;7.00;99.90;;;;;;5041083;28;20034;-65
2021/11/08 00:52:57;;;;;;;21.23;1.77;;;7.00;99.90;;;;;;5024522;28;20517;-61
2021/11/08 00:55:25;;;;;;;16.83;2.63;;;7.00;99.90;;;;;;5038253;28;20042;-63
2021/11/08 00:57:53;;;;;;;18.63;2.50;;;6.90;99.90;;;;;;5042006;28;20048;-65
2021/11/08 01:00:20;;;;;;;12.82;1.70;;;6.90;99.90;;;;;;5038702;28;20037;-63
2021/11/08 01:02:46;;;;;;;11.10;1.35;;;6.90;99.90;;;;;;5020479;28;20538;-61
2021/11/08 01:05:15;;;;;;;9.77;1.85;;;6.80;99.90;;;;;;5037890;28;20049;-62
2021/11/08 01:07:42;;;;;;;7.47;1.30;;;6.80;99.90;;;;;;5040286;28;20033;-63
2021/11/08 01:10:11;;;;;;;13.90;2.97;;;6.80;99.90;;;;;;5039921;28;20505;-63
2021/11/08 01:12:37;;;;;;;15.63;1.75;;;6.70;99.90;;;;;;5039937;28;20084;-62
2021/11/08 01:15:05;;;;;;;16.60;2.33;;;6.80;99.90;;;;;;5039739;28;20068;-63
2021/11/08 01:17:31;;;;;;;10.88;1.52;;;6.70;99.90;;;;;;5020944;28;20041;-62
2021/11/08 01:19:57;;;;;;;19.60;3.15;;;6.70;99.90;;;;;;5041310;28;20159;-62
2021/11/08 01:22:23;;;;;;;8.95;1.92;;;6.70;99.90;;;;;;5038022;28;20121;-61
2021/11/08 01:24:56;;;;;;;13.10;2.28;;;6.70;99.90;;;;;;5023461;28;20037;-62
2021/11/08 01:27:36;;;;;;;10.65;1.10;;;6.70;99.90;;;;;;5038130;28;20521;-63
2021/11/08 01:30:08;;;;;;;17.27;2.28;;;6.70;99.90;;;;;;5034996;28;20037;-62
2021/11/08 01:32:34;;;;;;;12.30;2.00;;;6.70;99.90;;;;;;5040851;28;20112;-64
2021/11/08 01:34:59;;;;;;;9.38;2.33;;;6.70;99.90;;;;;;5020247;28;20451;-62
2021/11/08 01:37:25;;;;;;;11.18;1.88;;;6.70;99.90;;;;;;5041419;28;20044;-62
2021/11/08 01:39:51;;;;;;;19.00;2.25;;;6.60;99.90;;;;;;5041671;28;20503;-61
2021/11/08 01:42:17;;;;;;;16.60;2.13;;;6.60;99.90;;;;;;5037990;28;20038;-62
2021/11/08 01:44:43;;;;;;;10.63;2.38;;;6.60;99.90;;;;;;5040380;28;20033;-63
2021/11/08 01:47:09;;;;;;;8.25;1.38;;;6.60;99.90;;;;;;5040498;28;20038;-62
2021/11/08 01:49:36;;;;;;;10.50;1.52;;;6.50;99.90;;;;;;5022483;28;20032;-62
2021/11/08 01:52:03;;;;;;;11.32;1.90;;;6.60;99.90;;;;;;5040271;28;20119;-62
2021/11/08 01:54:29;;;;;;;15.98;2.08;;;6.60;99.90;;;;;;5020168;28;20664;-63
2021/11/08 01:56:56;;;;;;;13.90;1.80;;;6.50;99.90;;;;;;5040716;28;20060;-63
2021/11/08 01:59:23;;;;;;;14.30;1.85;;;6.50;99.90;;;;;;5033270;28;20040;-62
2021/11/08 02:01:50;;;;;;;4.72;1.05;;;6.50;99.90;;;;;;5040001;28;20063;-64
2021/11/08 02:04:17;;;;;;;13.98;2.83;;;6.50;99.90;;;;;;5019356;28;20045;-61
2021/11/08 02:06:43;;;;;;;12.30;1.40;;;6.50;99.90;;;;;;5037870;28;20044;-64
2021/11/08 02:09:09;;;;;;;11.30;1.55;;;6.40;99.90;;;;;;5037555;28;20040;-64
2021/11/08 02:11:36;;;;;;;13.48;1.92;;;6.40;99.90;;;;;;5039960;28;20021;-61
2021/11/08 02:14:03;;;;;;;10.82;1.60;;;6.40;99.90;;;;;;5041535;28;20037;-61
2021/11/08 02:16:30;;;;;;;8.13;1.40;;;6.40;99.90;;;;;;5033098;28;20037;-61
2021/11/08 02:18:56;;;;;;;17.77;2.38;;;6.40;99.90;;;;;;5039614;28;20076;-61
2021/11/08 02:21:23;;;;;;;12.80;1.42;;;6.40;99.90;;;;;;5037101;28;20045;-61
2021/11/08 02:23:50;;;;;;;19.10;4.03;;;6.30;99.90;;;;;;5040712;28;20033;-64
2021/11/08 02:26:17;;;;;;;14.70;1.42;;;6.30;99.90;;;;;;5037028;28;20033;-62
2021/11/08 02:28:45;;;;;;;11.85;1.83;;;6.30;99.90;;;;;;5039474;28;20092;-61
2021/11/08 02:31:15;;;;;;;14.82;1.67;;;6.30;99.90;;;;;;5037614;28;20037;-62
2021/11/08 02:33:41;;;;;;;8.63;2.40;;;6.30;99.90;;;;;;5039670;28;20041;-65
2021/11/08 02:36:07;;;;;;;8.27;1.40;;;6.30;99.90;;;;;;5037575;28;20055;-61
2021/11/08 02:38:37;;;;;;;6.72;1.88;;;6.20;99.90;;;;;;5037804;28;20029;-64
2021/11/08 02:41:03;;;;;;;19.65;1.88;;;6.20;99.90;;;;;;5038973;28;20043;-63
2021/11/08 02:43:30;;;;;;;18.08;1.95;;;6.20;99.90;;;;;;5037414;28;20041;-60
2021/11/08 02:46:06;;;;;;;9.65;1.13;;;6.20;99.90;;;;;;5039816;28;20485;-64
2021/11/08 02:48:32;;;;;;;8.20;1.33;;;6.20;99.90;;;;;;5023349;28;20412;-63
2021/11/08 02:51:08;;;;;;;10.93;1.20;;;6.20;99.90;;;;;;5039365;28;20033;-64
2021/11/08 02:53:37;;;;;;;10.27;2.25;;;6.20;99.90;;;;;;5038294;28;20033;-61
2021/11/08 02:56:04;;;;;;;13.60;1.55;;;6.20;99.90;;;;;;5038572;28;20404;-65
2021/11/08 02:58:30;;;;;;;11.55;1.45;;;6.20;99.90;;;;;;5040581;28;20025;-62
2021/11/08 03:00:56;;;;;;;14.57;1.45;;;6.20;99.90;;;;;;5036973;28;20095;-63
2021/11/08 03:03:37;;;;;;;14.70;1.25;;;6.30;99.90;;;;;;5035160;28;20029;-66
2021/11/08 03:06:11;;;;;;;12.18;1.63;;;6.30;99.90;;;;;;5033718;28;20041;-63
2021/11/08 03:08:36;;;;;;;15.23;1.52;;;6.30;99.90;;;;;;5038170;28;20363;-60
2021/11/08 03:11:02;;;;;;;7.25;1.20;;;6.40;99.90;;;;;;5038261;28;20052;-62
2021/11/08 03:13:28;;;;;;;11.07;1.20;;;6.50;99.90;;;;;;5019289;28;20393;-64
2021/11/08 03:16:08;;;;;;;17.23;2.25;;;6.50;99.90;;;;;;5038720;28;20039;-62
2021/11/08 03:18:42;;;;;;;8.50;1.30;;;6.60;99.90;;;;;;5037214;28;20034;-64
2021/11/08 03:21:17;;;;;;;14.80;1.83;;;6.70;99.90;;;;;;5036842;28;20036;-61
2021/11/08 03:23:46;;;;;;;13.32;1.48;;;6.80;99.90;;;;;;5018746;28;20037;-62
2021/11/08 03:28:53;;;;;;;11.77;2.63;;;6.80;99.90;;;;;;5032804;28;20088;-62
2021/11/08 03:31:19;;;;;;;13.57;1.33;;;6.90;99.90;;;;;;5039193;28;20033;-63
2021/11/08 03:33:47;;;;;;;13.35;2.13;;;6.90;99.90;;;;;;5017882;28;20053;-62
2021/11/08 03:36:13;;;;;;;7.45;1.58;;;6.90;99.90;;;;;;5038249;28;20400;-61
2021/11/08 03:38:39;;;;;;;12.07;1.30;;;6.80;99.90;;;;;;5036817;28;20032;-62
2021/11/08 03:41:06;;;;;;;10.55;1.42;;;6.80;99.90;;;;;;5037009;28;20052;-62
2021/11/08 03:43:33;;;;;;;10.70;1.73;;;6.70;99.90;;;;;;5038079;28;20029;-62
2021/11/08 03:45:58;;;;;;;7.00;1.30;;;6.60;99.90;;;;;;5037068;28;20069;-63
2021/11/08 03:48:25;;;;;;;11.57;2.33;;;6.50;99.90;;;;;;5038783;28;20075;-61
2021/11/08 03:50:51;;;;;;;10.68;1.05;;;6.50;99.90;;;;;;5021695;28;20493;-61
2021/11/08 03:53:17;;;;;;;10.57;1.25;;;6.40;99.90;;;;;;5035324;28;20037;-62
2021/11/08 03:55:44;;;;;;;20.38;3.17;;;6.40;99.90;;;;;;5035026;28;20466;-61
2021/11/08 03:58:10;;;;;;;10.15;1.45;;;6.40;99.90;;;;;;5020561;28;20032;-61
2021/11/08 04:00:36;;;;;;;11.63;2.10;;;6.30;99.90;;;;;;5035549;28;20474;-62
2021/11/08 04:03:03;;;;;;;18.67;1.90;;;6.30;99.90;;;;;;5021308;28;20045;-61
2021/11/08 04:05:32;;;;;;;9.85;1.60;;;6.20;99.90;;;;;;5035806;28;20047;-65
2021/11/08 04:08:00;;;;;;;7.18;1.98;;;6.20;99.90;;;;;;5037928;28;20729;-63
2021/11/08 04:10:27;;;;;;;12.80;1.20;;;6.20;99.90;;;;;;5036319;28;20034;-63
2021/11/08 04:12:53;;;;;;;10.52;1.58;;;6.20;99.90;;;;;;5039665;28;20056;-61
2021/11/08 04:15:21;;;;;;;12.73;3.10;;;6.10;99.90;;;;;;5034538;28;20041;-61
2021/11/08 04:17:46;;;;;;;8.50;1.70;;;6.10;99.90;;;;;;5039640;28;20033;-63
2021/11/08 04:20:19;;;;;;;6.32;1.45;;;6.20;99.90;;;;;;5017019;28;20052;-61
2021/11/08 04:22:47;;;;;;;9.95;1.25;;;6.20;99.90;;;;;;5032049;28;20033;-65
2021/11/08 04:25:14;;;;;;;6.53;1.10;;;6.20;99.90;;;;;;5038343;28;20029;-61
2021/11/08 04:27:45;;;;;;;7.88;1.30;;;6.30;99.90;;;;;;5034935;28;20029;-62
2021/11/08 04:30:12;;;;;;;7.15;1.65;;;6.30;99.90;;;;;;5034759;28;20030;-61
2021/11/08 04:35:17;;;;;;;11.60;1.15;;;6.50;99.90;;;;;;5030732;28;20544;-62
2021/11/08 04:37:56;;;;;;;18.35;1.55;;;6.50;99.90;;;;;;5032028;28;20037;-61
2021/11/08 04:40:31;;;;;;;12.02;2.03;;;6.60;99.90;;;;;;5032991;28;20030;-62
2021/11/08 04:43:08;;;;;;;10.65;1.92;;;6.60;99.90;;;;;;5041065;28;20124;-63
2021/11/08 04:46:30;;;;;;;13.05;1.50;;;6.70;99.90;;;;;;5041342;28;20657;-61
2021/11/08 04:53:30;;;;;;;10.85;1.60;;;6.70;99.90;;;;;;5041883;28;20041;-61
2021/11/08 05:23:17;;;;;;;20.48;1.63;;;6.60;99.90;;;;;;5039508;28;20094;-61
2021/11/08 05:28:39;;;;;;;13.00;2.22;;;6.50;99.90;;;;;;5037975;28;20021;-63
2021/11/08 05:31:05;;;;;;;9.55;1.92;;;6.50;99.90;;;;;;5037616;28;20036;-65
2021/11/08 05:33:31;;;;;;;13.10;1.40;;;6.40;99.90;;;;;;5030387;28;20033;-62
2021/11/08 05:35:57;;;;;;;11.75;1.58;;;6.40;99.90;;;;;;5038280;28;20051;-62
2021/11/08 05:38:25;;;;;;;5.68;1.10;;;6.40;99.90;;;;;;5038929;28;20038;-63
2021/11/08 05:40:51;;;;;;;12.18;1.77;;;6.30;99.90;;;;;;5028101;28;20102;-62
2021/11/08 05:43:16;;;;;;;12.10;1.83;;;6.30;99.90;;;;;;5030753;28;20048;-62
2021/11/08 05:45:42;;;;;;;8.75;1.73;;;6.30;99.90;;;;;;5035763;28;20028;-62
2021/11/08 05:48:08;;;;;;;12.05;2.03;;;6.20;99.90;;;;;;5033026;28;20037;-66
2021/11/08 05:50:37;;;;;;;7.25;1.92;;;6.20;99.90;;;;;;5035411;28;20112;-63
2021/11/08 05:53:07;;;;;;;13.35;1.40;;;6.30;99.90;;;;;;5031710;28;20436;-61
2021/11/08 05:55:45;;;;;;;7.45;1.35;;;6.30;99.90;;;;;;5038903;28;20128;-61
2021/11/08 06:50:07;;;;;;;8.32;1.90;;;6.50;99.90;;;;;;5025104;28;20427;-65
2021/11/08 06:52:34;;;;;;;12.75;1.63;;;6.50;99.90;;;;;;5025461;28;20447;-63
2021/11/08 06:55:03;;;;;;;17.42;2.78;;;6.50;99.90;;;;;;5008821;28;20103;-64
2021/11/08 06:57:36;;;;;;;11.17;2.87;;;6.50;99.90;;;;;;5008673;28;20041;-65
2021/11/08 07:00:03;;;;;;;22.15;3.30;;;6.60;99.90;;;;;;5026188;28;20033;-64
2021/11/08 07:02:29;;;;;;;9.23;1.73;;;6.60;99.90;;;;;;5026730;28;20033;-61
2021/11/08 07:04:55;;;;;;;13.32;2.10;;;6.70;99.90;;;;;;5023769;28;20498;-63
2021/11/08 07:07:21;;;;;;;13.32;2.00;;;6.80;99.90;;;;;;5026837;28;20025;-63
2021/11/08 07:09:47;;;;;;;7.30;2.13;;;6.90;99.90;;;;;;5025718;28;20037;-63
2021/11/08 07:12:13;;;;;;;14.32;2.30;;;6.90;99.90;;;;;;5007617;28;20044;-62
2021/11/08 07:14:39;;;;;;;12.02;1.60;;;6.90;99.90;;;;;;5025319;28;20021;-63
2021/11/08 07:17:06;;;;;;;15.23;2.63;;;7.00;99.90;;;;;;5025454;28;20038;-64
2021/11/08 07:19:31;;;;;;;6.63;1.50;;;7.10;99.90;;;;;;5024285;28;20540;-62
2021/11/08 07:21:57;;;;;;;8.88;1.63;;;7.10;99.90;;;;;;5024015;28;20034;-62
2021/11/08 07:24:23;;;;;;;16.13;2.88;;;7.10;99.90;;;;;;5025333;28;20530;-63
2021/11/08 07:26:49;;;;;;;7.32;1.17;;;7.10;99.90;;;;;;5010573;28;20037;-64
2021/11/08 07:29:16;;;;;;;15.20;2.53;;;7.20;99.90;;;;;;5025537;28;20095;-62
2021/11/08 07:31:43;;;;;;;13.18;1.58;;;7.20;99.90;;;;;;5007599;28;20488;-65
2021/11/08 07:34:09;;;;;;;7.38;1.42;;;7.30;99.90;;;;;;5025246;28;20046;-62
2021/11/08 07:36:35;;;;;;;12.52;2.60;;;7.40;99.90;;;;;;5024458;28;20049;-62
2021/11/08 07:39:02;;;;;;;11.73;1.75;;;7.50;99.90;;;;;;5009787;28;20128;-60
2021/11/08 07:41:28;;;;;;;15.07;1.60;;;7.50;99.90;;;;;;5025176;28;20044;-63
2021/11/08 07:43:54;;;;;;;8.77;1.30;;;7.50;99.90;;;;;;5024570;28;20034;-62
2021/11/08 07:46:19;;;;;;;4.70;1.58;;;7.60;99.90;;;;;;5024337;28;20033;-61
2021/11/08 07:48:45;;;;;;;8.30;2.25;;;7.70;99.90;;;;;;5008193;28;20038;-61
2021/11/08 07:51:14;;;;;;;9.40;1.58;;;7.70;99.90;;;;;;5005654;28;20073;-65
2021/11/08 07:53:39;;;;;;;12.80;2.08;;;7.80;99.90;;;;;;5008313;28;20029;-62
2021/11/08 07:56:06;;;;;;;10.02;1.88;;;7.90;99.90;;;;;;5025257;28;20049;-63
2021/11/08 07:58:32;;;;;;;12.38;1.98;;;7.90;99.90;;;;;;5006069;28;20581;-62
2021/11/08 08:00:57;;;;;;;8.77;2.28;;;8.00;99.90;;;;;;5006403;28;20053;-63
2021/11/08 08:03:25;;;;;;;7.30;1.10;;;8.10;99.90;;;;;;5027968;28;20033;-65
2021/11/08 08:05:51;;;;;;;13.70;2.05;;;8.20;99.90;;;;;;5026003;28;20029;-61
2021/11/08 08:08:17;;;;;;;11.38;1.20;;;8.20;99.90;;;;;;5006161;28;20032;-62
2021/11/08 08:10:42;;;;;;;11.57;1.05;;;8.30;99.90;;;;;;5026380;28;20133;-61
2021/11/08 08:13:08;;;;;;;9.23;0.93;;;8.30;99.90;;;;;;5010081;28;20053;-61
2021/11/08 08:15:34;;;;;;;6.47;1.00;;;8.40;99.90;;;;;;5025540;28;20443;-63
2021/11/08 08:18:00;;;;;;;7.70;1.58;;;8.40;99.90;;;;;;5024319;28;20065;-62
2021/11/08 08:20:32;;;;;;;9.43;2.00;;;8.50;99.90;;;;;;5028935;28;20047;-62
2021/11/08 08:22:57;;;;;;;8.45;1.88;;;8.50;99.90;;;;;;5029695;28;20490;-62
2021/11/08 08:25:23;;;;;;;7.68;1.27;;;8.60;99.90;;;;;;5013568;28;20107;-63
2021/11/08 08:27:49;;;;;;;10.27;1.85;;;8.60;99.90;;;;;;5028662;28;20121;-61
2021/11/08 08:30:15;;;;;;;12.25;1.55;;;8.60;99.90;;;;;;5030099;28;20404;-62
2021/11/08 08:32:41;;;;;;;11.20;1.70;;;8.70;99.90;;;;;;5029477;28;20110;-63
2021/11/08 08:35:08;;;;;;;14.20;1.65;;;8.70;99.90;;;;;;5028109;28;20519;-65
2021/11/08 08:37:34;;;;;;;9.13;1.23;;;8.70;99.90;;;;;;5010025;28;20041;-63
2021/11/08 08:40:00;;;;;;;10.98;2.22;;;8.80;99.90;;;;;;5028396;28;20033;-62
2021/11/08 08:42:26;;;;;;;6.25;0.95;;;8.80;99.90;;;;;;5028728;28;20052;-61
2021/11/08 08:44:52;;;;;;;11.73;2.33;;;8.90;99.90;;;;;;5029351;28;20037;-63
2021/11/08 08:47:18;;;;;;;15.38;1.90;;;8.90;99.90;;;;;;5026828;28;20112;-62
2021/11/08 08:49:44;;;;;;;6.47;1.27;;;8.90;99.90;;;;;;5030922;28;20752;-64
2021/11/08 08:52:11;;;;;;;12.15;1.85;;;9.00;99.90;;;;;;5013377;28;20040;-64
2021/11/08 08:54:39;;;;;;;8.95;1.20;;;9.00;99.90;;;;;;5030062;28;20032;-61
2021/11/08 08:57:06;;;;;;;8.82;1.55;;;9.10;99.90;;;;;;5027913;28;20048;-62
2021/11/08 08:59:32;;;;;;;6.68;1.55;;;9.10;99.90;;;;;;5010662;28;20064;-61
2021/11/08 09:01:57;;;;;;;8.38;1.67;;;9.20;99.90;;;;;;5027218;28;20049;-61
2021/11/08 09:04:24;;;;;;;16.25;1.70;;;9.20;99.90;;;;;;5009550;28;20037;-65
2021/11/08 09:06:49;;;;;;;12.02;1.70;;;9.20;99.90;;;;;;5010613;28;20042;-61
2021/11/08 09:09:15;;;;;;;11.23;1.85;;;9.20;99.90;;;;;;5001719;28;20121;-61
2021/11/08 09:11:41;;;;;;;7.70;1.35;;;9.10;99.90;;;;;;5028681;28;20052;-61
2021/11/08 09:14:06;;;;;;;13.10;1.33;;;9.20;99.90;;;;;;5026716;28;20063;-64
2021/11/08 09:16:33;;;;;;;9.95;1.92;;;9.20;99.90;;;;;;5028986;28;20045;-64
2021/11/08 09:19:00;;;;;;;12.93;1.38;;;9.30;99.90;;;;;;5010266;28;20033;-61
2021/11/08 09:21:28;;;;;;;7.03;2.28;;;9.30;99.90;;;;;;5008195;28;20582;-62
2021/11/08 09:23:55;;;;;;;8.18;1.40;;;9.30;99.90;;;;;;5010062;28;20042;-63
2021/11/08 09:26:23;;;;;;;12.63;1.50;;;9.40;99.90;;;;;;5027573;28;20045;-64
2021/11/08 09:28:49;;;;;;;14.23;1.95;;;9.50;99.90;;;;;;5028650;28;20125;-63
2021/11/08 09:31:17;;;;;;;10.50;1.40;;;9.70;99.90;;;;;;5029099;28;20061;-61
2021/11/08 09:33:43;;;;;;;7.95;1.45;;;9.90;99.90;;;;;;5009620;28;20049;-65
2021/11/08 09:36:09;;;;;;;10.02;1.20;;;9.90;99.90;;;;;;5028125;28;20121;-61
2021/11/08 09:38:38;;;;;;;11.35;1.80;;;9.90;99.90;;;;;;5027983;28;20041;-63
2021/11/08 09:41:10;;;;;;;12.82;2.17;;;10.00;99.90;;;;;;5027528;28;20488;-60
2021/11/08 09:43:37;;;;;;;17.67;2.00;;;10.10;99.90;;;;;;5026336;28;20037;-65
2021/11/08 09:46:03;;;;;;;9.93;2.05;;;10.10;99.90;;;;;;5008528;28;20033;-62
2021/11/08 09:48:29;;;;;;;14.48;2.97;;;10.20;99.90;;;;;;5027901;28;20103;-62
2021/11/08 09:50:57;;;;;;;15.48;1.33;;;10.20;99.90;;;;;;5026131;28;20059;-62
2021/11/08 09:53:22;;;;;;;15.10;2.58;;;10.30;99.90;;;;;;5028247;28;20048;-61
2021/11/08 09:55:49;;;;;;;14.57;1.67;;;10.30;99.90;;;;;;5026301;28;20057;-65
2021/11/08 09:58:16;;;;;;;11.43;1.95;;;10.30;99.90;;;;;;5024785;28;20061;-63
2021/11/08 10:00:54;;;;;;;20.33;2.10;;;10.40;99.90;;;;;;5008906;28;20028;-64
2021/11/08 10:03:26;;;;;;;9.73;1.90;;;10.40;99.90;;;;;;5009487;28;20037;-64
2021/11/08 10:05:54;;;;;;;7.93;1.58;;;10.40;99.90;;;;;;5032095;28;20036;-63
2021/11/08 10:08:27;;;;;;;12.30;1.80;;;10.50;99.90;;;;;;5027929;28;20041;-61
2021/11/08 10:10:55;;;;;;;13.07;2.60;;;10.50;99.90;;;;;;5027365;28;20041;-61
2021/11/08 10:13:25;;;;;;;11.98;2.10;;;10.50;99.90;;;;;;5027537;28;20674;-61
2021/11/08 10:15:57;;;;;;;14.98;2.35;;;10.60;99.90;;;;;;5029552;28;20061;-60
2021/11/08 10:18:24;;;;;;;13.85;1.90;;;10.60;99.90;;;;;;5028134;28;20049;-61
2021/11/08 10:20:52;;;;;;;10.63;1.77;;;10.70;99.90;;;;;;5009992;28;20038;-61
2021/11/08 10:23:21;;;;;;;9.55;1.92;;;10.70;99.90;;;;;;5004402;28;20042;-62
2021/11/08 10:25:47;;;;;;;11.25;1.55;;;10.70;99.90;;;;;;5023060;28;20505;-63
2021/11/08 10:28:17;;;;;;;13.98;2.55;;;10.70;99.90;;;;;;5026467;28;21599;-63
2021/11/08 10:30:47;;;;;;;14.33;2.40;;;10.70;99.90;;;;;;5029078;28;20045;-61
2021/11/08 10:33:18;;;;;;;10.60;2.22;;;10.80;99.90;;;;;;5008681;28;20338;-63
2021/11/08 10:35:50;;;;;;;10.95;2.30;;;10.80;99.90;;;;;;5027492;28;20041;-62
2021/11/08 10:38:28;;;;;;;14.38;2.13;;;10.80;99.90;;;;;;5028238;28;20541;-63
2021/11/08 10:41:04;;;;;;;10.55;1.50;;;10.80;99.90;;;;;;5024329;28;20088;-60
2021/11/08 10:44:03;;;;;;;9.68;1.95;;;10.80;99.90;;;;;;5025382;28;20064;-61
2021/11/08 10:46:32;;;;;;;8.05;2.13;;;10.70;99.90;;;;;;5023429;28;20041;-66
2021/11/08 10:49:06;;;;;;;11.15;2.40;;;10.70;99.90;;;;;;5027334;28;20113;-65
2021/11/08 10:51:32;;;;;;;11.88;2.17;;;10.60;99.90;;;;;;5026792;28;20084;-61
2021/11/08 10:54:01;;;;;;;14.52;2.00;;;10.50;99.90;;;;;;5024252;28;20080;-64
2021/11/08 10:56:30;;;;;;;11.75;1.83;;;10.60;99.90;;;;;;5008574;28;20052;-60
2021/11/08 10:58:59;;;;;;;18.30;2.30;;;10.60;99.90;;;;;;5007304;28;20129;-62
2021/11/08 11:01:39;;;;;;;10.18;1.95;;;10.80;99.90;;;;;;5025415;28;20037;-61
2021/11/08 11:04:06;;;;;;;13.80;2.22;;;11.00;99.90;;;;;;5024989;28;20493;-62
2021/11/08 11:06:42;;;;;;;13.95;2.28;;;11.20;99.90;;;;;;5006316;28;20120;-61
2021/11/08 11:09:14;;;;;;;9.90;1.80;;;11.30;99.90;;;;;;5024280;28;20045;-61
2021/11/08 11:11:41;;;;;;;12.23;2.35;;;11.50;99.90;;;;;;5026162;28;20065;-62
2021/11/08 11:14:07;;;;;;;16.30;3.00;;;11.60;99.90;;;;;;5006450;28;20041;-61
2021/11/08 11:16:50;;;;;;;27.05;2.60;;;11.70;99.90;;;;;;5023384;28;20045;-61
2021/11/08 11:19:18;;;;;;;9.45;2.42;;;11.60;99.90;;;;;;5020674;28;20042;-67
2021/11/08 11:22:00;;;;;;;13.10;3.28;;;11.70;99.90;;;;;;5025443;28;20445;-61
2021/11/08 11:24:41;;;;;;;16.17;2.38;;;11.80;99.90;;;;;;5018361;28;20460;-63
2021/11/08 11:27:11;;;;;;;12.65;2.28;;;11.80;99.90;;;;;;5022984;28;20029;-63
2021/11/08 11:29:37;;;;;;;12.27;2.05;;;11.90;99.90;;;;;;5020673;28;20394;-63
2021/11/08 11:32:03;;;;;;;11.13;1.30;;;11.90;99.90;;;;;;5020658;28;20061;-61
2021/11/08 11:34:29;;;;;;;6.13;1.95;;;11.90;99.90;;;;;;5018158;28;20113;-61
2021/11/08 11:36:55;;;;;;;13.32;1.60;;;11.90;99.90;;;;;;5022862;28;20034;-63
2021/11/08 11:39:21;;;;;;;10.80;1.30;;;11.90;99.90;;;;;;5021687;28;20040;-64
2021/11/08 11:41:49;;;;;;;9.40;1.55;;;11.90;99.90;;;;;;5022280;28;20063;-65
2021/11/08 11:44:22;;;;;;;11.90;2.03;;;11.80;99.90;;;;;;5004166;28;20025;-62
2021/11/08 11:46:51;;;;;;;18.17;2.58;;;11.80;99.90;;;;;;5021431;28;20095;-64
2021/11/08 11:49:17;;;;;;;9.60;1.58;;;11.80;99.90;;;;;;5021672;28;20052;-63
2021/11/08 11:51:54;;;;;;;13.43;1.52;;;11.90;99.90;;;;;;5005649;28;20046;-61
2021/11/08 11:54:22;;;;;;;10.98;1.50;;;11.90;99.90;;;;;;5025217;28;20650;-61
2021/11/08 11:56:52;;;;;;;9.75;2.30;;;11.90;99.90;;;;;;5026726;28;20114;-65
2021/11/08 11:59:19;;;;;;;9.68;1.35;;;12.00;99.90;;;;;;5023844;28;20397;-62
2021/11/08 12:01:45;;;;;;;9.57;1.30;;;12.00;99.90;;;;;;5026141;28;20555;-63
2021/11/08 12:04:12;;;;;;;9.98;1.52;;;12.00;99.90;;;;;;5026045;28;20497;-64
2021/11/08 12:06:47;;;;;;;11.45;1.88;;;12.10;99.90;;;;;;5028230;28;20037;-61
2021/11/08 12:09:16;;;;;;;8.70;1.23;;;12.20;99.90;;;;;;5026361;28;20071;-62
2021/11/08 12:11:46;;;;;;;9.55;1.55;;;12.30;99.90;;;;;;5027424;28;20052;-61
2021/11/08 12:14:14;;;;;;;20.53;3.27;;;12.30;99.90;;;;;;5028378;28;20555;-62
2021/11/08 12:16:51;;;;;;;15.68;1.85;;;12.40;99.90;;;;;;5030711;28;20280;-61
2021/11/08 12:19:19;;;;;;;13.57;1.35;;;12.60;99.90;;;;;;5028588;28;20049;-65
2021/11/08 12:21:44;;;;;;;7.90;1.00;;;12.70;99.90;;;;;;5030079;28;20025;-61
2021/11/08 12:24:22;;;;;;;6.97;1.13;;;12.70;99.90;;;;;;5029288;28;20075;-62
2021/11/08 12:27:00;;;;;;;7.47;1.55;;;12.80;99.90;;;;;;5028103;28;20037;-62
2021/11/08 12:29:26;;;;;;;9.18;1.42;;;12.80;99.90;;;;;;5027375;28;22874;-63
2021/11/08 12:32:04;;;;;;;7.80;1.45;;;12.70;99.90;;;;;;5029645;28;20036;-62
2021/11/08 12:34:41;;;;;;;11.23;1.40;;;12.70;99.90;;;;;;5027226;28;20022;-61
2021/11/08 12:37:07;;;;;;;7.45;1.50;;;12.70;99.90;;;;;;5013259;28;20057;-61
2021/11/08 12:39:34;;;;;;;11.38;1.38;;;12.70;99.90;;;;;;5028783;28;20037;-65
2021/11/08 12:42:07;;;;;;;8.80;1.02;;;12.70;99.90;;;;;;5027324;28;20041;-64
2021/11/08 12:44:44;;;;;;;7.93;1.08;;;12.80;99.90;;;;;;5026805;28;20037;-63
2021/11/08 12:47:12;;;;;;;8.55;0.82;;;12.70;99.90;;;;;;5026929;28;20462;-64
2021/11/08 12:49:55;;;;;;;6.88;0.90;;;12.80;99.90;;;;;;5026504;28;20086;-64
2021/11/08 12:52:31;;;;;;;5.10;0.88;;;12.80;99.90;;;;;;5026888;28;20038;-63
2021/11/08 12:55:12;;;;;;;12.20;1.85;;;12.80;99.90;;;;;;5027421;28;20490;-63
2021/11/08 12:57:51;;;;;;;9.88;1.27;;;12.70;99.90;;;;;;5028999;28;20041;-63
2021/11/08 13:00:23;;;;;;;9.57;1.13;;;12.80;99.90;;;;;;5024391;28;20622;-64
2021/11/08 13:02:55;;;;;;;10.32;1.15;;;12.80;99.90;;;;;;5028218;28;20098;-63
2021/11/08 13:05:46;;;;;;;12.00;1.75;;;12.80;99.90;;;;;;5026959;28;20029;-64
2021/11/08 13:08:27;;;;;;;12.50;1.90;;;12.70;99.90;;;;;;5017812;28;20802;-65
2021/11/08 13:11:15;;;;;;;10.10;1.48;;;12.70;99.90;;;;;;5010653;28;20154;-63
2021/11/08 13:13:58;;;;;;;12.23;1.50;;;12.70;99.90;;;;;;5027744;28;20473;-65
2021/11/08 13:16:36;;;;;;;9.05;1.27;;;12.60;99.90;;;;;;5026398;28;20561;-64
2021/11/08 13:19:05;;;;;;;10.50;1.25;;;12.60;99.90;;;;;;5025706;28;20119;-63
2021/11/08 13:21:31;;;;;;;7.95;1.33;;;12.60;99.90;;;;;;5026901;28;20108;-65
2021/11/08 13:23:57;;;;;;;8.60;1.08;;;12.50;99.90;;;;;;5010031;28;20045;-63
2021/11/08 13:26:24;;;;;;;4.30;1.13;;;12.40;99.90;;;;;;5007768;28;20496;-63
2021/11/08 13:28:50;;;;;;;8.52;1.27;;;12.30;99.90;;;;;;5028507;28;20083;-63
2021/11/08 13:31:16;;;;;;;7.53;1.08;;;12.20;99.90;;;;;;5007635;28;20033;-64
2021/11/08 13:33:48;;;;;;;7.47;0.98;;;12.10;99.90;;;;;;5026612;28;20755;-63
2021/11/08 13:36:15;;;;;;;8.35;1.02;;;12.10;99.90;;;;;;5009975;28;20668;-64
2021/11/08 13:38:44;;;;;;;8.90;1.45;;;12.10;99.90;;;;;;5009685;28;20032;-62
2021/11/08 13:41:18;;;;;;;8.32;2.15;;;12.20;99.90;;;;;;5026252;28;20092;-65
2021/11/08 13:43:57;;;;;;;8.80;0.90;;;12.20;99.90;;;;;;5008598;28;20036;-62
2021/11/08 13:46:33;;;;;;;13.13;1.83;;;12.20;99.90;;;;;;5026096;28;20036;-64
2021/11/08 13:49:05;;;;;;;13.77;1.20;;;12.20;99.90;;;;;;5009956;28;20056;-62
2021/11/08 13:51:39;;;;;;;16.85;2.65;;;12.30;99.90;;;;;;5007969;28;20040;-63
2021/11/08 13:54:08;;;;;;;10.60;1.30;;;12.20;99.90;;;;;;5008859;28;20072;-63
2021/11/08 13:56:36;;;;;;;6.68;1.05;;;12.20;99.90;;;;;;5026451;28;20116;-65
2021/11/08 13:59:08;;;;;;;8.85;1.38;;;12.20;99.90;;;;;;5029211;28;20037;-65
2021/11/08 14:01:37;;;;;;;7.63;1.50;;;12.20;99.90;;;;;;5028366;28;20508;-64
2021/11/08 14:04:04;;;;;;;6.93;1.45;;;12.20;99.90;;;;;;5029357;28;20038;-63
2021/11/08 14:06:37;;;;;;;10.15;1.08;;;12.20;99.90;;;;;;5025989;28;20048;-64
2021/11/08 14:09:09;;;;;;;12.43;1.23;;;12.20;99.90;;;;;;5026703;28;20033;-64
2021/11/08 14:11:40;;;;;;;9.32;1.60;;;12.10;99.90;;;;;;5026466;28;20056;-63
2021/11/08 14:14:10;;;;;;;6.03;0.75;;;12.10;99.90;;;;;;5027497;28;20039;-65
2021/11/08 14:16:41;;;;;;;6.10;1.33;;;12.00;99.90;;;;;;5024908;28;20043;-63
2021/11/08 14:19:07;;;;;;;11.10;1.48;;;12.00;99.90;;;;;;5026393;28;20090;-68
2021/11/08 14:21:34;;;;;;;12.65;1.33;;;12.00;99.90;;;;;;5027506;28;20045;-63
2021/11/08 14:24:07;;;;;;;7.07;1.10;;;12.00;99.90;;;;;;5009634;28;20513;-64
2021/11/08 14:26:35;;;;;;;8.68;1.20;;;12.00;99.90;;;;;;5027408;28;20045;-64
2021/11/08 14:29:19;;;;;;;8.38;1.70;;;11.90;99.90;;;;;;5025685;28;20037;-64
2021/11/08 14:31:51;;;;;;;8.70;1.75;;;11.90;99.90;;;;;;5025443;28;20037;-63